createdAt,value
2018-12-13T00:00:36.281Z,2.93
2018-12-13T00:03:07.002Z,3.53
2018-12-13T00:05:37.733Z,3.83
2018-12-13T00:08:07.159Z,3.70
2018-12-13T00:10:35.965Z,2.97
2018-12-13T00:13:05.105Z,4.10
2018-12-13T00:15:34.056Z,4.20
2018-12-13T00:18:02.850Z,4.47
2018-12-13T00:20:31.668Z,4.78
2018-12-13T00:23:00.471Z,4.97
2018-12-13T00:25:29.589Z,6.10
2018-12-13T00:27:58.399Z,4.60
2018-12-13T00:30:27.142Z,6.23
2018-12-13T00:32:55.976Z,5.60
2018-12-13T00:35:24.696Z,5.97
2018-12-13T00:37:53.486Z,4.20
2018-12-13T00:40:22.324Z,5.45
2018-12-13T00:42:51.131Z,5.80
2018-12-13T00:45:19.951Z,6.28
2018-12-13T00:47:48.892Z,7.40
2018-12-13T00:50:17.669Z,6.23
2018-12-13T00:52:46.498Z,6.67
2018-12-13T00:55:15.363Z,6.47
2018-12-13T00:57:44.589Z,6.15
2018-12-13T01:00:13.452Z,7.07
2018-12-13T01:02:43.133Z,7.22
2018-12-13T01:05:12.308Z,6.30
2018-12-13T01:07:41.326Z,5.30
2018-12-13T01:10:10.133Z,6.33
2018-12-13T01:15:18.908Z,7.00
2018-12-13T01:17:47.663Z,6.03
2018-12-13T01:20:16.426Z,5.97
2018-12-13T01:22:45.161Z,7.23
2018-12-13T01:25:14.054Z,6.17
2018-12-13T01:27:43.091Z,6.43
2018-12-13T01:30:11.957Z,8.30
2018-12-13T01:32:40.786Z,6.92
2018-12-13T01:35:09.674Z,8.33
2018-12-13T01:37:38.463Z,7.87
2018-12-13T01:40:07.281Z,6.53
2018-12-13T01:42:36.146Z,6.53
2018-12-13T01:45:05.267Z,6.08
2018-12-13T01:47:34.275Z,7.03
2018-12-13T01:50:04.626Z,7.10
2018-12-13T01:52:33.537Z,7.78
2018-12-13T01:55:03.474Z,6.70
2018-12-13T01:57:32.245Z,8.05
2018-12-13T02:00:01.823Z,5.65
2018-12-13T02:05:12.334Z,7.80
2018-12-13T02:07:41.122Z,7.70
2018-12-13T02:10:10.046Z,7.27
2018-12-13T02:12:40.079Z,6.43
2018-12-13T02:15:08.919Z,6.20
2018-12-13T02:17:37.971Z,7.10
2018-12-13T02:20:06.882Z,7.58
2018-12-13T02:22:35.676Z,7.13
2018-12-13T02:25:04.582Z,6.95
2018-12-13T02:27:33.452Z,6.80
2018-12-13T02:30:03.021Z,6.57
2018-12-13T02:32:31.966Z,6.63
2018-12-13T02:35:00.787Z,8.03
2018-12-13T02:37:29.709Z,7.20
2018-12-13T02:39:58.550Z,7.33
2018-12-13T02:42:27.271Z,5.87
2018-12-13T02:44:56.329Z,7.25
2018-12-13T02:47:25.276Z,7.40
2018-12-13T02:49:54.212Z,6.75
2018-12-13T02:55:04.222Z,6.63
2018-12-13T02:57:33.174Z,5.43
2018-12-13T03:00:02.710Z,5.28
2018-12-13T03:05:12.646Z,5.83
2018-12-13T03:07:41.487Z,6.40
2018-12-13T03:10:10.274Z,5.50
2018-12-13T03:12:38.986Z,5.00
2018-12-13T03:15:07.886Z,5.93
2018-12-13T03:17:36.750Z,4.53
2018-12-13T03:20:05.850Z,6.00
2018-12-13T03:22:34.705Z,5.85
2018-12-13T03:25:04.962Z,6.17
2018-12-13T03:27:33.854Z,4.37
2018-12-13T03:30:04.987Z,5.37
2018-12-13T03:35:12.587Z,5.13
2018-12-13T03:37:43.454Z,6.00
2018-12-13T03:40:12.331Z,4.85
2018-12-13T03:42:41.106Z,4.87
2018-12-13T03:45:09.957Z,6.27
2018-12-13T03:47:39.004Z,6.63
2018-12-13T03:50:07.837Z,4.87
2018-12-13T03:52:36.600Z,5.03
2018-12-13T03:55:05.550Z,5.53
2018-12-13T03:57:34.305Z,4.60
2018-12-13T04:00:05.379Z,5.90
2018-12-13T04:02:34.479Z,4.37
2018-12-13T04:05:03.770Z,6.03
2018-12-13T04:07:32.502Z,5.50
2018-12-13T04:10:02.055Z,4.90
2018-12-13T04:12:31.007Z,5.20
2018-12-13T04:14:59.726Z,5.87
2018-12-13T04:17:28.538Z,4.57
2018-12-13T04:19:59.303Z,3.67
2018-12-13T04:22:28.142Z,5.17
2018-12-13T04:24:56.933Z,4.50
2018-12-13T04:27:26.851Z,4.80
2018-12-13T04:29:55.634Z,4.87
2018-12-13T04:32:24.341Z,4.23
2018-12-13T04:34:53.124Z,4.67
2018-12-13T04:37:21.829Z,4.17
2018-12-13T04:39:50.684Z,4.63
2018-12-13T04:42:19.530Z,4.47
2018-12-13T04:44:48.314Z,4.20
2018-12-13T04:47:17.710Z,3.72
2018-12-13T04:49:46.466Z,3.93
2018-12-13T04:52:15.396Z,4.00
2018-12-13T04:54:44.317Z,4.70
2018-12-13T04:57:13.066Z,4.70
2018-12-13T04:59:41.954Z,4.40
2018-12-13T05:02:11.128Z,4.35
2018-12-13T05:04:40.091Z,3.75
2018-12-13T05:09:48.950Z,5.50
2018-12-13T05:12:17.810Z,4.27
2018-12-13T05:14:46.573Z,4.27
2018-12-13T05:17:15.511Z,4.00
2018-12-13T05:19:44.299Z,5.20
2018-12-13T05:22:13.107Z,4.07
2018-12-13T05:24:42.017Z,5.37
2018-12-13T05:27:10.775Z,4.47
2018-12-13T05:29:39.501Z,5.47
2018-12-13T05:32:08.315Z,4.20
2018-12-13T05:34:37.017Z,4.40
2018-12-13T05:37:05.842Z,4.37
2018-12-13T05:39:35.494Z,4.50
2018-12-13T05:42:04.899Z,4.50
2018-12-13T05:44:33.798Z,4.73
2018-12-13T05:47:03.857Z,4.50
2018-12-13T05:49:32.571Z,4.57
2018-12-13T05:52:02.025Z,5.17
2018-12-13T05:54:30.776Z,4.30
2018-12-13T05:56:59.507Z,3.92
2018-12-13T05:59:28.352Z,4.80
2018-12-13T06:01:57.083Z,4.40
2018-12-13T06:04:26.113Z,5.13
2018-12-13T06:06:54.917Z,3.77
2018-12-13T06:09:23.746Z,4.80
2018-12-13T06:11:52.542Z,4.97
2018-12-13T06:14:21.330Z,4.12
2018-12-13T06:16:50.141Z,3.83
2018-12-13T06:19:19.043Z,4.40
2018-12-13T06:21:47.800Z,5.30
2018-12-13T06:24:16.597Z,4.50
2018-12-13T06:26:45.596Z,4.03
2018-12-13T06:29:15.353Z,5.60
2018-12-13T06:31:44.109Z,5.10
2018-12-13T06:34:12.821Z,4.07
2018-12-13T06:36:41.568Z,4.10
2018-12-13T06:39:10.230Z,4.60
2018-12-13T06:41:39.000Z,5.23
2018-12-13T06:44:07.814Z,4.30
2018-12-13T06:46:36.658Z,3.75
2018-12-13T06:49:05.402Z,4.45
2018-12-13T06:51:34.161Z,4.03
2018-12-13T06:54:03.564Z,3.83
2018-12-13T06:56:32.385Z,4.30
2018-12-13T06:59:02.004Z,3.80
2018-12-13T07:01:30.768Z,4.30
2018-12-13T07:03:59.534Z,3.43
2018-12-13T07:06:28.328Z,4.33
2018-12-13T07:08:57.021Z,4.13
2018-12-13T07:11:25.780Z,3.97
2018-12-13T07:13:54.574Z,4.40
2018-12-13T07:16:23.340Z,3.80
2018-12-13T07:18:52.042Z,4.37
2018-12-13T07:21:21.022Z,4.97
2018-12-13T07:23:49.777Z,3.93
2018-12-13T07:26:18.697Z,4.30
2018-12-13T07:28:47.420Z,3.37
2018-12-13T07:31:16.203Z,3.08
2018-12-13T07:33:45.102Z,3.80
2018-12-13T07:36:13.902Z,3.30
2018-12-13T07:38:42.676Z,3.80
2018-12-13T07:41:11.453Z,3.67
2018-12-13T07:43:40.355Z,3.40
2018-12-13T07:46:09.324Z,5.65
2018-12-13T07:48:38.124Z,5.33
2018-12-13T07:51:06.958Z,3.10
2018-12-13T07:53:35.664Z,4.53
2018-12-13T07:56:04.625Z,3.97
2018-12-13T07:58:33.575Z,4.17
2018-12-13T08:01:03.101Z,4.12
2018-12-13T08:03:31.875Z,3.43
2018-12-13T08:06:00.634Z,3.23
2018-12-13T08:08:29.398Z,3.80
2018-12-13T08:10:58.217Z,3.25
2018-12-13T08:13:27.030Z,4.37
2018-12-13T08:15:56.146Z,3.90
2018-12-13T08:18:26.862Z,4.87
2018-12-13T08:20:58.080Z,3.67
2018-12-13T08:23:27.528Z,2.83
2018-12-13T08:25:57.160Z,3.30
2018-12-13T08:28:25.937Z,3.57
2018-12-13T08:30:54.661Z,2.75
2018-12-13T08:33:23.413Z,3.30
2018-12-13T08:35:52.210Z,4.40
2018-12-13T08:38:27.067Z,4.30
2018-12-13T08:40:51.973Z,4.00
2018-12-13T08:43:20.750Z,3.40
2018-12-13T08:45:49.503Z,3.57
2018-12-13T08:48:18.322Z,3.73
2018-12-13T08:50:47.110Z,3.42
2018-12-13T08:53:15.833Z,3.30
2018-12-13T08:55:44.679Z,3.77
2018-12-13T08:58:13.369Z,3.53
2018-12-13T09:00:42.121Z,4.10
2018-12-13T09:03:10.862Z,3.17
2018-12-13T09:05:39.754Z,3.20
2018-12-13T09:08:08.680Z,3.63
2018-12-13T09:10:37.527Z,4.13
2018-12-13T09:13:06.383Z,4.00
2018-12-13T09:15:35.142Z,3.07
2018-12-13T09:18:04.119Z,3.10
2018-12-13T09:20:33.022Z,3.23
2018-12-13T09:23:02.974Z,3.30
2018-12-13T09:28:11.659Z,3.20
2018-12-13T09:30:40.395Z,4.13
2018-12-13T09:35:50.143Z,3.20
2018-12-13T09:38:18.839Z,3.10
2018-12-13T09:40:47.769Z,3.13
2018-12-13T09:43:16.517Z,3.33
2018-12-13T09:45:45.303Z,2.77
2018-12-13T09:48:14.013Z,4.20
2018-12-13T09:50:42.766Z,4.28
2018-12-13T09:53:11.491Z,3.30
2018-12-13T09:55:40.279Z,2.93
2018-12-13T09:58:09.029Z,2.90
2018-12-13T10:00:37.826Z,2.90
2018-12-13T10:03:06.666Z,3.00
2018-12-13T10:05:35.443Z,2.50
2018-12-13T10:08:04.298Z,3.17
2018-12-13T10:10:33.078Z,2.87
2018-12-13T10:13:03.642Z,2.60
2018-12-13T10:15:32.456Z,3.47
2018-12-13T10:18:02.721Z,2.65
2018-12-13T10:20:31.466Z,3.00
2018-12-13T10:23:00.312Z,3.00
2018-12-13T10:25:29.864Z,2.53
2018-12-13T10:27:58.637Z,2.58
2018-12-13T10:30:27.399Z,3.07
2018-12-13T10:32:56.148Z,2.70
2018-12-13T10:35:24.822Z,2.50
2018-12-13T10:37:53.626Z,2.80
2018-12-13T10:40:22.426Z,2.23
2018-12-13T10:45:31.982Z,3.07
2018-12-13T10:48:00.815Z,3.00
2018-12-13T10:50:30.211Z,2.50
2018-12-13T10:52:58.925Z,2.58
2018-12-13T10:55:27.830Z,2.90
2018-12-13T10:57:56.590Z,3.10
2018-12-13T11:00:30.843Z,2.92
2018-12-13T11:03:20.565Z,2.00
2018-12-13T11:05:49.342Z,2.77
2018-12-13T11:08:18.160Z,2.33
2018-12-13T11:10:46.977Z,2.33
2018-12-13T11:13:15.883Z,2.50
2018-12-13T11:15:44.795Z,2.75
2018-12-13T11:18:13.565Z,2.50
2018-12-13T11:20:42.372Z,2.70
2018-12-13T11:23:11.246Z,2.93
2018-12-13T11:25:39.962Z,2.47
2018-12-13T11:28:20.562Z,2.60
2018-12-13T11:30:49.330Z,3.03
2018-12-13T11:33:18.840Z,3.40
2018-12-13T11:35:47.678Z,1.92
2018-12-13T11:38:16.511Z,1.87
2018-12-13T11:40:45.351Z,2.95
2018-12-13T11:43:14.305Z,2.20
2018-12-13T11:45:43.154Z,2.00
2018-12-13T11:48:11.814Z,2.92
2018-12-13T11:53:21.297Z,3.03
2018-12-13T11:55:50.029Z,2.27
2018-12-13T11:58:18.825Z,2.20
2018-12-13T12:00:47.627Z,2.60
2018-12-13T12:03:16.569Z,2.90
2018-12-13T12:05:46.133Z,2.83
2018-12-13T12:08:14.913Z,2.58
2018-12-13T12:10:43.689Z,2.60
2018-12-13T12:13:12.501Z,2.90
2018-12-13T12:15:41.433Z,1.90
2018-12-13T12:18:10.194Z,2.23
2018-12-13T12:20:38.982Z,2.25
2018-12-13T12:23:08.125Z,2.40
2018-12-13T12:25:36.806Z,2.03
2018-12-13T12:28:05.743Z,2.87
2018-12-13T12:30:34.614Z,2.50
2018-12-13T12:33:04.032Z,2.30
2018-12-13T12:35:39.522Z,2.03
2018-12-13T12:38:08.510Z,2.30
2018-12-13T12:40:37.296Z,1.65
2018-12-13T12:43:06.101Z,2.77
2018-12-13T12:45:34.806Z,2.67
2018-12-13T12:48:04.227Z,2.17
2018-12-13T12:50:33.018Z,2.50
2018-12-13T12:53:02.958Z,3.30
2018-12-13T12:55:31.690Z,2.00
2018-12-13T12:58:00.425Z,2.60
2018-12-13T13:00:29.182Z,1.90
2018-12-13T13:02:58.245Z,2.43
2018-12-13T13:05:27.099Z,1.75
2018-12-13T13:07:55.734Z,3.23
2018-12-13T13:13:13.843Z,2.10
2018-12-13T13:15:42.620Z,2.00
2018-12-13T13:18:11.387Z,2.77
2018-12-13T13:23:23.647Z,2.57
2018-12-13T13:25:53.019Z,3.15
2018-12-13T13:28:21.807Z,2.83
2018-12-13T13:30:50.604Z,3.13
2018-12-13T13:33:19.365Z,2.60
2018-12-13T13:35:49.085Z,2.72
2018-12-13T13:38:18.005Z,2.37
2018-12-13T13:40:46.711Z,2.93
2018-12-13T13:43:15.495Z,2.42
2018-12-13T13:45:44.367Z,2.90
2018-12-13T13:48:13.130Z,2.30
2018-12-13T13:50:43.842Z,2.60
2018-12-13T13:53:12.746Z,3.00
2018-12-13T13:55:41.571Z,3.47
2018-12-13T13:58:10.422Z,2.23
2018-12-13T14:00:39.222Z,3.17
2018-12-13T14:03:08.065Z,2.93
2018-12-13T14:05:36.856Z,3.02
2018-12-13T14:08:05.658Z,2.40
2018-12-13T14:10:34.470Z,3.50
2018-12-13T14:13:03.320Z,3.33
2018-12-13T14:15:32.145Z,2.93
2018-12-13T14:18:00.826Z,2.80
2018-12-13T14:20:30.851Z,2.92
2018-12-13T14:22:59.896Z,3.83
2018-12-13T14:25:28.769Z,3.43
2018-12-13T14:27:57.548Z,3.33
2018-12-13T14:30:26.306Z,3.30
2018-12-13T14:32:55.049Z,4.23
2018-12-13T14:35:23.937Z,3.00
2018-12-13T14:37:52.694Z,3.80
2018-12-13T14:40:21.507Z,3.33
2018-12-13T14:42:52.216Z,3.77
2018-12-13T14:45:21.147Z,3.93
2018-12-13T14:47:50.282Z,3.80
2018-12-13T14:50:19.070Z,3.53
2018-12-13T14:52:47.933Z,3.27
2018-12-13T14:55:16.650Z,6.58
2018-12-13T15:00:31.249Z,3.60
2018-12-13T15:02:59.985Z,4.15
2018-12-13T15:05:29.985Z,24.07
2018-12-13T15:07:58.788Z,3.83
2018-12-13T15:10:27.579Z,10.90
2018-12-13T15:13:03.037Z,16.42
2018-12-13T15:15:31.773Z,3.52
2018-12-13T15:18:00.664Z,20.57
2018-12-13T15:20:29.879Z,11.77
2018-12-13T15:22:58.683Z,6.57
2018-12-13T15:25:27.538Z,5.90
2018-12-13T15:27:56.226Z,12.30
2018-12-13T15:30:25.041Z,4.45
2018-12-13T15:32:53.840Z,7.40
2018-12-13T15:35:22.942Z,5.40
2018-12-13T15:37:52.000Z,8.98
2018-12-13T15:40:20.858Z,6.43
2018-12-13T15:42:49.718Z,10.43
2018-12-13T15:45:19.582Z,4.70
2018-12-13T15:47:48.362Z,8.05
2018-12-13T15:50:17.114Z,4.40
2018-12-13T15:52:45.898Z,5.27
2018-12-13T15:55:14.703Z,4.05
2018-12-13T15:57:43.687Z,3.33
2018-12-13T16:00:12.603Z,3.67
2018-12-13T16:02:43.366Z,3.67
2018-12-13T16:05:12.232Z,3.83
2018-12-13T16:07:41.152Z,5.40
2018-12-13T16:10:10.035Z,3.67
2018-12-13T16:12:38.867Z,3.05
2018-12-13T16:15:07.646Z,2.98
2018-12-13T16:17:36.442Z,2.70
2018-12-13T16:20:05.735Z,2.83
2018-12-13T16:22:34.613Z,3.37
2018-12-13T16:25:04.086Z,3.40
2018-12-13T16:27:34.042Z,3.60
2018-12-13T16:30:03.758Z,2.92
2018-12-13T16:32:32.787Z,3.40
2018-12-13T16:35:02.409Z,3.12
2018-12-13T16:37:31.294Z,4.13
2018-12-13T16:40:00.803Z,2.80
2018-12-13T16:47:31.509Z,3.00
2018-12-13T16:50:00.291Z,2.93
2018-12-13T16:52:30.782Z,2.40
2018-12-13T16:54:59.554Z,3.53
2018-12-13T16:57:28.407Z,4.10
2018-12-13T16:59:57.122Z,3.83
2018-12-13T17:02:25.819Z,3.52
2018-12-13T17:04:54.730Z,3.67
2018-12-13T17:07:23.748Z,3.43
2018-12-13T17:09:52.532Z,4.23
2018-12-13T17:12:21.363Z,4.30
2018-12-13T17:14:50.191Z,3.27
2018-12-13T17:17:19.022Z,3.55
2018-12-13T17:19:47.783Z,4.10
2018-12-13T17:22:16.626Z,4.10
2018-12-13T17:24:45.387Z,5.57
2018-12-13T17:27:14.225Z,3.73
2018-12-13T17:29:43.057Z,4.23
2018-12-13T17:32:12.263Z,4.30
2018-12-13T17:34:41.001Z,4.58
2018-12-13T17:37:09.817Z,5.12
2018-12-13T17:39:38.567Z,4.77
2018-12-13T17:42:07.787Z,4.97
2018-12-13T17:44:36.575Z,4.53
2018-12-13T17:47:05.332Z,6.30
2018-12-13T17:49:34.085Z,5.43
2018-12-13T17:52:02.994Z,4.85
2018-12-13T17:54:31.761Z,5.17
2018-12-13T17:57:00.587Z,4.13
2018-12-13T17:59:29.386Z,4.63
2018-12-13T18:01:58.157Z,4.77
2018-12-13T18:04:26.833Z,4.73
2018-12-13T18:06:55.694Z,4.53
2018-12-13T18:09:24.403Z,4.73
2018-12-13T18:11:53.169Z,4.75
2018-12-13T18:14:21.943Z,5.13
2018-12-13T18:16:50.845Z,4.62
2018-12-13T18:19:19.617Z,5.00
2018-12-13T18:21:48.450Z,5.83
2018-12-13T18:24:17.218Z,5.23
2018-12-13T18:26:46.079Z,4.73
2018-12-13T18:29:14.886Z,4.70
2018-12-13T18:31:43.624Z,5.08
2018-12-13T18:34:12.513Z,4.20
2018-12-13T18:36:41.303Z,4.93
2018-12-13T18:39:10.190Z,4.12
2018-12-13T18:41:39.188Z,5.30
2018-12-13T18:44:08.106Z,4.63
2018-12-13T18:49:16.214Z,5.57
2018-12-13T18:51:44.965Z,3.98
2018-12-13T18:54:20.265Z,5.10
2018-12-13T18:56:49.177Z,5.63
2018-12-13T18:59:18.008Z,4.60
2018-12-13T19:01:46.853Z,4.67
2018-12-13T19:04:15.692Z,5.40
2018-12-13T19:06:44.555Z,4.93
2018-12-13T19:09:13.299Z,4.70
2018-12-13T19:11:42.104Z,4.53
2018-12-13T19:14:10.853Z,4.33
2018-12-13T19:16:41.368Z,5.72
2018-12-13T19:19:10.285Z,4.87
2018-12-13T19:21:39.029Z,5.60
2018-12-13T19:24:07.859Z,5.10
2018-12-13T19:26:43.152Z,6.07
2018-12-13T19:29:11.990Z,6.10
2018-12-13T19:31:40.957Z,5.27
2018-12-13T19:34:09.832Z,4.47
2018-12-13T19:36:38.566Z,5.50
2018-12-13T19:39:08.455Z,5.10
2018-12-13T19:41:37.278Z,5.55
2018-12-13T19:44:06.001Z,6.00
2018-12-13T19:46:35.405Z,5.20
2018-12-13T19:49:04.520Z,5.00
2018-12-13T19:51:33.215Z,5.47
2018-12-13T19:54:03.298Z,5.23
2018-12-13T19:56:32.218Z,6.53
2018-12-13T19:59:02.154Z,6.03
2018-12-13T20:01:30.969Z,6.08
2018-12-13T20:04:00.293Z,5.53
2018-12-13T20:06:29.733Z,5.03
2018-12-13T20:08:58.514Z,5.83
2018-12-13T20:11:27.346Z,6.58
2018-12-13T20:13:56.141Z,5.28
2018-12-13T20:16:25.122Z,6.30
2018-12-13T20:18:53.917Z,6.60
2018-12-13T20:21:22.658Z,5.92
2018-12-13T20:23:52.749Z,6.07
2018-12-13T20:26:21.672Z,5.20
2018-12-13T20:28:50.462Z,5.33
2018-12-13T20:31:19.250Z,5.30
2018-12-13T20:33:48.148Z,5.70
2018-12-13T20:36:16.971Z,5.53
2018-12-13T20:38:45.795Z,5.37
2018-12-13T20:41:14.806Z,6.30
2018-12-13T20:43:43.762Z,5.10
2018-12-13T20:46:12.482Z,6.07
2018-12-13T20:48:41.345Z,5.57
2018-12-13T20:51:10.143Z,5.37
2018-12-13T20:53:38.988Z,5.75
2018-12-13T20:56:07.821Z,5.50
2018-12-13T20:58:37.596Z,7.35
2018-12-13T21:01:06.327Z,8.20
2018-12-13T21:03:35.356Z,9.30
2018-12-13T21:06:04.145Z,8.40
2018-12-13T21:08:33.426Z,9.53
2018-12-13T21:11:07.463Z,9.17
2018-12-13T21:13:33.952Z,8.88
2018-12-13T21:16:03.670Z,6.77
2018-12-13T21:18:32.498Z,6.90
2018-12-13T21:21:02.002Z,6.70
2018-12-13T21:23:30.986Z,6.90
2018-12-13T21:26:00.370Z,6.60
2018-12-13T21:28:29.863Z,6.43
2018-12-13T21:30:58.598Z,7.40
2018-12-13T21:33:27.685Z,8.20
2018-12-13T21:35:56.630Z,6.40
2018-12-13T21:38:25.390Z,6.20
2018-12-13T21:40:54.336Z,5.47
2018-12-13T21:43:23.082Z,6.03
2018-12-13T21:45:54.500Z,6.30
2018-12-13T21:48:23.222Z,6.62
2018-12-13T21:50:52.035Z,6.85
2018-12-13T21:53:21.417Z,6.10
2018-12-13T21:55:50.186Z,7.33
2018-12-13T21:58:18.998Z,5.87
2018-12-13T22:00:47.888Z,6.70
2018-12-13T22:03:16.733Z,7.17
2018-12-13T22:05:45.699Z,5.87
2018-12-13T22:08:14.690Z,5.70
2018-12-13T22:13:29.385Z,7.03
2018-12-13T22:15:58.794Z,7.27
2018-12-13T22:21:40.023Z,7.63
2018-12-13T22:24:08.989Z,6.80
2018-12-13T22:26:38.037Z,6.20
2018-12-13T22:29:06.857Z,8.98
2018-12-13T22:31:35.810Z,8.03
2018-12-13T22:34:04.690Z,7.00
2018-12-13T22:36:33.579Z,6.00
2018-12-13T22:39:04.022Z,7.67
2018-12-13T22:41:34.741Z,6.10
2018-12-13T22:44:03.936Z,7.13
2018-12-13T22:46:33.042Z,6.83
2018-12-13T22:51:43.030Z,7.93
2018-12-13T22:54:11.739Z,7.87
2018-12-13T22:56:41.278Z,8.35
2018-12-13T22:59:10.080Z,6.50
2018-12-13T23:01:38.960Z,7.07
2018-12-13T23:04:07.842Z,6.87
2018-12-13T23:06:36.745Z,9.00
2018-12-13T23:09:07.214Z,8.40
2018-12-13T23:11:38.098Z,8.57
2018-12-13T23:14:06.834Z,7.78
2018-12-13T23:16:35.644Z,7.22
2018-12-13T23:19:04.552Z,8.00
2018-12-13T23:21:33.574Z,9.43
2018-12-13T23:24:02.513Z,8.53
2018-12-13T23:29:14.902Z,8.50
2018-12-13T23:31:43.933Z,8.63
2018-12-13T23:34:12.717Z,9.00
2018-12-13T23:36:41.561Z,7.87
2018-12-13T23:39:10.607Z,7.47
2018-12-13T23:41:39.601Z,7.70
2018-12-13T23:44:08.383Z,7.03
2018-12-13T23:46:37.214Z,7.33
2018-12-13T23:49:05.943Z,7.97
2018-12-13T23:51:34.655Z,7.57
2018-12-13T23:54:03.647Z,7.70
2018-12-13T23:56:33.074Z,6.53
2018-12-13T23:59:02.706Z,8.30
